Terminal Aerodrome Forecast
Issued by NWS

Home | Current Version | Previous Version | Text Only | Print | Product List | Glossary On
Versions: 1 2 3 4 5 6 7 8 9 10 11 12 13 14 15 16
000
FTUS46 KMTR 152300
TAFOAK
TAF
KOAK 152330Z 1600/1706 29012KT P6SM FEW180
     FM160300 31008KT P6SM SKC
     FM160900 29006KT P6SM BKN010
     FM161700 29006KT P6SM FEW010
     FM161900 30011KT P6SM SKC
     FM170300 26007KT P6SM FEW010=

USA.gov is the U.S. government's official web portal to all federal, state and local government web resources and services.